This is the latest recevied weather packets stored in our database for station/object KY0TEQ-13. If no packets are shown the sender has not sent any weather packets the latest 10 day(s).
| Time | Temp. | Humidity | Pressure | Rain* | Wind** | Luminosity | Snow |
|---|---|---|---|---|---|---|---|
| 1777388096 | 6.67° C | 37% | 1304.3 hPa | 0 mm | - | 314 W/m² | - |
| 1777387793 | 6.11° C | 39% | 1304.3 hPa | 0 mm | - | 293 W/m² | - |
| 1777387489 | 5.56° C | 39% | 1304.3 hPa | 0 mm | - | 275 W/m² | - |
| 1777387185 | 5.56° C | 38% | 1304.3 hPa | 0 mm | - | 256 W/m² | - |
| 1777386880 | 6.11° C | 36% | 1304.1 hPa | 0 mm | - | 243 W/m² | - |
| 1777386578 | 6.11° C | 36% | 1304 hPa | 0 mm | - | 228 W/m² | - |
| 1777386274 | 6.11° C | 38% | 1303.7 hPa | 0 mm | - | 210 W/m² | - |
| 1777385972 | 7.22° C | 35% | 1304.1 hPa | 0 mm | - | 196 W/m² | - |
| 1777385668 | 6.11° C | 36% | 1304 hPa | 0 mm | - | 182 W/m² | - |
| 1777385366 | 5.56° C | 37% | 1304 hPa | 0 mm | - | 162 W/m² | - |
| 1777385062 | 5° C | 37% | 1303.9 hPa | 0 mm | - | 161 W/m² | - |
| 1777384759 | 4.44° C | 39% | 1303.8 hPa | 0 mm | - | 139 W/m² | - |
| 1777384454 | 3.89° C | 42% | 1303.7 hPa | 0 mm | - | 126 W/m² | - |
| 1777384149 | 3.89° C | 46% | 1303.5 hPa | 0 mm | - | 114 W/m² | - |
| 1777383846 | 2.78° C | 51% | 1303.7 hPa | 0 mm | - | 101 W/m² | - |
| 1777383541 | 2.78° C | 53% | 1303.5 hPa | 0 mm | - | 88 W/m² | - |
| 1777383239 | 1.67° C | 52% | 1303.4 hPa | 0 mm | - | 78 W/m² | - |
| 1777382935 | 1.67° C | 54% | 1303.3 hPa | 0 mm | - | 67 W/m² | - |
| 1777382630 | 1.11° C | 56% | 1303.3 hPa | 0 mm | - | 60 W/m² | - |
| 1777382327 | -0.56° C | 62% | 1303.3 hPa | 0 mm | - | 52 W/m² | - |
| 1777382023 | 0° C | 59% | 1303.2 hPa | 0 mm | - | 45 W/m² | - |
| 1777381719 | -0.56° C | 59% | 1302.9 hPa | 0 mm | - | 39 W/m² | - |
| 1777381413 | -1.11° C | 61% | 1302.8 hPa | 0 mm | - | 33 W/m² | - |
| 1777381110 | -2.22° C | 62% | 1302.8 hPa | 0 mm | - | 27 W/m² | - |
| 1777380807 | -1.67° C | 61% | 1302.4 hPa | 0 mm | - | 23 W/m² | - |
* Rain latest hour (hover to see other rain measurements)
** Current wind speed in m/s (hover to see current wind gust speed)